This is the latest recevied weather packets stored in our database for station/object N4JTC. If no packets are shown the sender has not sent any weather packets the latest 10 day(s).
| Time | Temp. | Humidity | Pressure | Rain* | Wind** | Luminosity | Snow |
|---|---|---|---|---|---|---|---|
| 1778177104 | 27.22° C | 86% | 1015 hPa | 0 mm | - | 305 W/m² | - |
| 1778176503 | 27.22° C | 86% | 1015.2 hPa | 0 mm | - | 270 W/m² | - |
| 1778176203 | 27.22° C | 86% | 1015.2 hPa | 0 mm | - | 461 W/m² | - |
| 1778175902 | 27.22° C | 86% | 1015.5 hPa | 0 mm | - | 310 W/m² | - |
| 1778175603 | 27.22° C | 86% | 1015.6 hPa | 0 mm | - | 307 W/m² | - |
| 1778175303 | 27.78° C | 85% | 1015.7 hPa | 0 mm | - | 227 W/m² | - |
| 1778175003 | 27.78° C | 85% | 1015.8 hPa | 0 mm | - | 306 W/m² | - |
| 1778174703 | 27.78° C | 85% | 1015.9 hPa | 0 mm | - | 377 W/m² | - |
| 1778174103 | 27.22° C | 86% | 1015.9 hPa | 0 mm | - | 459 W/m² | - |
| 1778173803 | 27.22° C | 86% | 1016 hPa | 0 mm | - | 322 W/m² | - |
| 1778173502 | 26.67° C | 86% | 1015.8 hPa | 0 mm | - | 439 W/m² | - |
| 1778173202 | 26.67° C | 87% | 1016.3 hPa | 0 mm | - | 246 W/m² | - |
| 1778172903 | 26.67° C | 86% | 1016.4 hPa | 0 mm | - | 294 W/m² | - |
| 1778172603 | 26.67° C | 87% | 1016.2 hPa | 0 mm | - | 259 W/m² | - |
| 1778172303 | 27.22° C | 86% | 1016.4 hPa | 0 mm | - | 147 W/m² | - |
| 1778172003 | 27.22° C | 86% | 1016.3 hPa | 0 mm | - | 234 W/m² | - |
| 1778171703 | 27.78° C | 84% | 1016.3 hPa | 0 mm | - | 228 W/m² | - |
| 1778171103 | 27.78° C | 84% | 1016 hPa | 0 mm | - | 569 W/m² | - |
| 1778170503 | 27.78° C | 84% | 1016.2 hPa | 0 mm | - | 498 W/m² | - |
| 1778170203 | 27.22° C | 85% | 1016.2 hPa | 0 mm | - | 632 W/m² | - |
| 1778169903 | 27.22° C | 86% | 1016.1 hPa | 0 mm | - | 665 W/m² | - |
| 1778169602 | 26.67° C | 86% | 1016 hPa | 0 mm | - | 432 W/m² | - |
| 1778169303 | 27.22° C | 85% | 1016 hPa | 0 mm | - | 330 W/m² | - |
| 1778168703 | 27.78° C | 84% | 1016.2 hPa | 0 mm | - | 399 W/m² | - |
| 1778168103 | 27.78° C | 85% | 1015.7 hPa | 0 mm | - | 886 W/m² | - |
* Rain latest hour (hover to see other rain measurements)
** Current wind speed in m/s (hover to see current wind gust speed)